createdAt,value
2019-02-25T00:00:36.795Z,40.35
2019-02-25T00:03:06.077Z,39.50
2019-02-25T00:05:35.074Z,43.78
2019-02-25T00:08:04.277Z,41.75
2019-02-25T00:10:33.554Z,41.73
2019-02-25T00:13:02.713Z,41.80
2019-02-25T00:15:31.954Z,42.98
2019-02-25T00:18:01.115Z,43.95
2019-02-25T00:20:30.314Z,48.08
2019-02-25T00:22:59.273Z,46.42
2019-02-25T00:25:28.440Z,52.85
2019-02-25T00:27:57.633Z,46.20
2019-02-25T00:30:26.954Z,46.25
2019-02-25T00:32:56.153Z,44.90
2019-02-25T00:35:25.354Z,51.73
2019-02-25T00:37:54.637Z,49.93
2019-02-25T00:40:23.768Z,47.17
2019-02-25T00:42:52.793Z,46.40
2019-02-25T00:45:21.914Z,50.05
2019-02-25T00:47:50.916Z,50.70
2019-02-25T00:50:23.812Z,50.80
2019-02-25T00:52:52.875Z,48.17
2019-02-25T00:55:21.873Z,48.30
2019-02-25T00:57:50.954Z,48.65
2019-02-25T01:00:24.233Z,46.53
2019-02-25T01:02:53.435Z,47.88
2019-02-25T01:05:22.594Z,53.78
2019-02-25T01:07:51.794Z,45.50
2019-02-25T01:10:21.593Z,44.23
2019-02-25T01:12:50.794Z,49.05
2019-02-25T01:15:19.995Z,45.38
2019-02-25T01:17:49.234Z,44.15
2019-02-25T01:20:19.035Z,40.85
2019-02-25T01:22:48.234Z,42.45
2019-02-25T01:25:18.756Z,41.83
2019-02-25T01:27:47.904Z,46.23
2019-02-25T01:30:19.514Z,39.27
2019-02-25T01:32:48.674Z,41.30
2019-02-25T01:35:17.994Z,40.70
2019-02-25T01:37:47.153Z,41.98
2019-02-25T01:40:16.557Z,38.38
2019-02-25T01:42:45.674Z,35.80
2019-02-25T01:45:16.975Z,43.10
2019-02-25T01:47:46.275Z,44.38
2019-02-25T01:50:15.433Z,42.50
2019-02-25T01:52:44.634Z,40.83
2019-02-25T01:55:16.923Z,42.98
2019-02-25T01:57:45.995Z,42.65
2019-02-25T02:00:16.837Z,36.58
2019-02-25T02:02:45.794Z,40.52
2019-02-25T02:05:15.120Z,42.75
2019-02-25T02:07:44.433Z,45.20
2019-02-25T02:10:18.036Z,44.63
2019-02-25T02:12:47.115Z,40.12
2019-02-25T02:15:17.706Z,41.30
2019-02-25T02:17:46.674Z,43.83
2019-02-25T02:20:17.245Z,46.73
2019-02-25T02:22:46.437Z,44.55
2019-02-25T02:25:15.956Z,44.63
2019-02-25T02:27:45.154Z,44.77
2019-02-25T02:30:16.674Z,45.20
2019-02-25T02:32:45.713Z,43.45
2019-02-25T02:35:14.914Z,39.70
2019-02-25T02:37:44.240Z,42.10
2019-02-25T02:40:14.274Z,42.93
2019-02-25T02:42:49.040Z,45.03
2019-02-25T02:45:23.716Z,41.35
2019-02-25T02:47:58.795Z,39.88
2019-02-25T02:50:27.925Z,45.90
2019-02-25T02:52:57.033Z,44.90
2019-02-25T02:55:26.161Z,38.90
2019-02-25T02:57:55.266Z,40.45
2019-02-25T03:00:24.360Z,46.80
2019-02-25T03:02:53.556Z,43.08
2019-02-25T03:05:22.714Z,40.45
2019-02-25T03:07:51.755Z,39.70
2019-02-25T03:10:20.994Z,35.45
2019-02-25T03:12:50.118Z,38.58
2019-02-25T03:15:23.398Z,39.58
2019-02-25T03:17:52.601Z,41.68
2019-02-25T03:20:21.794Z,41.75
2019-02-25T03:22:50.914Z,42.85
2019-02-25T03:25:20.279Z,40.28
2019-02-25T03:27:49.435Z,37.45
2019-02-25T03:30:22.494Z,42.80
2019-02-25T03:32:52.674Z,40.12
2019-02-25T03:35:21.955Z,41.30
2019-02-25T03:37:51.036Z,35.58
2019-02-25T03:40:22.717Z,38.02
2019-02-25T03:42:51.766Z,38.75
2019-02-25T03:45:21.686Z,42.27
2019-02-25T03:47:50.881Z,34.88
2019-02-25T03:50:20.114Z,40.15
2019-02-25T03:52:49.194Z,38.00
2019-02-25T03:55:21.967Z,38.98
2019-02-25T03:57:51.401Z,38.33
2019-02-25T04:00:27.481Z,38.30
2019-02-25T04:02:56.676Z,37.67
2019-02-25T04:05:25.768Z,39.20
2019-02-25T04:07:54.993Z,40.25
2019-02-25T04:10:24.078Z,37.30
2019-02-25T04:12:53.273Z,37.63
2019-02-25T04:15:23.955Z,38.85
2019-02-25T04:17:54.359Z,34.23
2019-02-25T04:20:23.518Z,35.75
2019-02-25T04:22:52.637Z,34.18
2019-02-25T04:25:21.659Z,39.40
2019-02-25T04:27:50.874Z,34.75
2019-02-25T04:30:20.074Z,31.82
2019-02-25T04:32:49.197Z,34.85
2019-02-25T04:35:18.251Z,38.75
2019-02-25T04:37:47.314Z,34.55
2019-02-25T04:40:16.436Z,30.37
2019-02-25T04:42:45.514Z,34.43
2019-02-25T04:45:16.965Z,36.38
2019-02-25T04:47:46.116Z,34.60
2019-02-25T04:50:15.197Z,34.92
2019-02-25T04:52:44.435Z,35.23
2019-02-25T04:55:14.762Z,37.35
2019-02-25T04:57:43.833Z,30.48
2019-02-25T05:00:27.139Z,32.13
2019-02-25T05:02:56.277Z,36.75
2019-02-25T05:05:25.475Z,37.78
2019-02-25T05:07:54.674Z,35.60
2019-02-25T05:10:23.841Z,39.85
2019-02-25T05:13:03.634Z,35.92
2019-02-25T05:15:34.195Z,38.42
2019-02-25T05:18:03.361Z,36.90
2019-02-25T05:20:32.595Z,36.90
2019-02-25T05:23:01.878Z,39.80
2019-02-25T05:25:31.034Z,41.35
2019-02-25T05:28:00.274Z,39.40
2019-02-25T05:30:29.435Z,39.58
2019-02-25T05:32:58.594Z,43.38
2019-02-25T05:35:27.514Z,40.85
2019-02-25T05:37:56.592Z,43.63
2019-02-25T05:40:25.937Z,48.60
2019-02-25T05:42:55.035Z,43.70
2019-02-25T05:45:25.233Z,45.70
2019-02-25T05:47:54.314Z,50.52
2019-02-25T05:50:23.511Z,42.75
2019-02-25T05:52:52.631Z,44.65
2019-02-25T05:55:21.592Z,50.33
2019-02-25T05:57:50.688Z,58.08
2019-02-25T06:00:25.720Z,61.33
2019-02-25T06:02:54.916Z,63.13
2019-02-25T06:05:23.995Z,49.75
2019-02-25T06:07:52.885Z,47.78
2019-02-25T06:10:21.994Z,51.02
2019-02-25T06:12:51.154Z,51.53
2019-02-25T06:15:20.916Z,52.30
2019-02-25T06:17:50.154Z,53.75
2019-02-25T06:20:19.354Z,48.87
2019-02-25T06:22:48.512Z,43.75
2019-02-25T06:25:18.093Z,51.65
2019-02-25T06:27:47.274Z,45.20
2019-02-25T06:30:18.605Z,42.30
2019-02-25T06:32:47.770Z,40.85
2019-02-25T06:35:16.900Z,47.23
2019-02-25T06:37:46.200Z,45.05
2019-02-25T06:40:17.163Z,42.48
2019-02-25T06:42:46.353Z,48.80
2019-02-25T06:45:20.234Z,44.20
2019-02-25T06:47:49.354Z,41.35
2019-02-25T06:50:18.354Z,44.58
2019-02-25T06:52:47.412Z,43.02
2019-02-25T06:55:17.955Z,39.53
2019-02-25T06:57:47.158Z,46.83
2019-02-25T07:00:17.913Z,43.33
2019-02-25T07:02:47.081Z,37.15
2019-02-25T07:05:18.194Z,38.20
2019-02-25T07:07:58.239Z,34.88
2019-02-25T07:10:40.956Z,36.40
2019-02-25T07:13:11.754Z,37.05
2019-02-25T07:15:45.154Z,37.33
2019-02-25T07:18:18.757Z,35.35
2019-02-25T07:21:05.475Z,35.65
2019-02-25T07:23:52.353Z,39.58
2019-02-25T07:26:27.585Z,62.93
2019-02-25T07:29:14.625Z,123.75
2019-02-25T07:32:01.571Z,254.57
2019-02-25T07:34:38.276Z,130.15
2019-02-25T07:37:09.277Z,133.50
2019-02-25T07:39:48.714Z,41.55
2019-02-25T07:42:34.516Z,31.15
2019-02-25T07:45:11.595Z,24.80
2019-02-25T07:47:42.234Z,22.67
2019-02-25T07:50:22.115Z,20.77
2019-02-25T07:53:05.000Z,18.02
2019-02-25T07:55:35.635Z,18.57
2019-02-25T07:58:18.316Z,16.45
2019-02-25T08:00:54.314Z,19.70
2019-02-25T08:03:33.793Z,17.37
2019-02-25T08:06:04.472Z,20.02
2019-02-25T08:08:40.976Z,21.20
2019-02-25T08:11:11.631Z,20.45
2019-02-25T08:13:42.312Z,18.67
2019-02-25T08:16:16.071Z,20.85
2019-02-25T08:18:55.832Z,20.85
2019-02-25T08:21:32.351Z,21.07
2019-02-25T08:24:09.232Z,19.50
2019-02-25T08:26:52.085Z,20.52
2019-02-25T08:29:22.726Z,18.23
2019-02-25T08:31:53.323Z,19.48
2019-02-25T08:34:24.046Z,21.42
2019-02-25T08:37:06.726Z,21.68
2019-02-25T08:39:43.245Z,24.00
2019-02-25T08:42:14.123Z,23.95
2019-02-25T08:44:47.246Z,25.90
2019-02-25T08:47:17.905Z,23.30
2019-02-25T08:49:51.185Z,24.40
2019-02-25T08:52:20.110Z,22.45
2019-02-25T08:54:49.129Z,28.00
2019-02-25T08:57:18.205Z,28.70
2019-02-25T08:59:47.087Z,26.52
2019-02-25T09:02:16.310Z,26.30
2019-02-25T09:04:45.248Z,29.85
2019-02-25T09:07:14.184Z,28.47
2019-02-25T09:09:43.106Z,30.35
2019-02-25T09:12:12.026Z,35.90
2019-02-25T09:14:41.013Z,26.93
2019-02-25T09:17:10.085Z,29.72
2019-02-25T09:19:38.966Z,28.12
2019-02-25T09:22:07.945Z,30.30
2019-02-25T09:24:36.985Z,25.32
2019-02-25T09:27:06.024Z,29.02
2019-02-25T09:29:35.007Z,28.17
2019-02-25T09:32:03.945Z,28.62
2019-02-25T09:34:32.827Z,30.32
2019-02-25T09:37:01.717Z,30.75
2019-02-25T09:39:30.684Z,29.77
2019-02-25T09:41:59.576Z,28.75
2019-02-25T09:44:28.468Z,31.90
2019-02-25T09:46:57.393Z,33.50
2019-02-25T09:49:26.269Z,32.40
2019-02-25T09:51:55.166Z,31.05
2019-02-25T09:54:24.193Z,33.18
2019-02-25T09:56:53.146Z,35.83
2019-02-25T09:59:22.025Z,33.25
2019-02-25T10:01:50.925Z,37.85
2019-02-25T10:04:19.894Z,39.85
2019-02-25T10:06:48.773Z,36.50
2019-02-25T10:09:17.677Z,35.92
2019-02-25T10:11:48.700Z,33.95
2019-02-25T10:14:17.304Z,33.42
2019-02-25T10:16:46.326Z,38.95
2019-02-25T10:19:15.404Z,41.75
2019-02-25T10:21:44.295Z,39.18
2019-02-25T10:24:13.295Z,39.92
2019-02-25T10:26:42.853Z,39.05
2019-02-25T10:29:11.913Z,41.10
2019-02-25T10:31:41.704Z,40.25
2019-02-25T10:34:11.646Z,44.27
2019-02-25T10:36:40.606Z,43.30
2019-02-25T10:39:13.042Z,49.18
2019-02-25T10:41:41.993Z,56.75
2019-02-25T10:44:10.935Z,48.33
2019-02-25T10:46:40.835Z,48.63
2019-02-25T10:49:11.672Z,44.25
2019-02-25T10:51:42.947Z,39.20
2019-02-25T10:54:11.653Z,42.25
2019-02-25T10:56:43.696Z,35.23
2019-02-25T10:59:12.725Z,37.67
2019-02-25T11:01:43.303Z,36.58
2019-02-25T11:04:12.496Z,36.95
2019-02-25T11:06:41.555Z,38.75
2019-02-25T11:09:16.364Z,44.08
2019-02-25T11:11:46.376Z,42.35
2019-02-25T11:14:15.405Z,40.92
2019-02-25T11:16:46.023Z,40.90
2019-02-25T11:19:15.494Z,44.90
2019-02-25T11:21:44.555Z,42.73
2019-02-25T11:24:14.472Z,42.33
2019-02-25T11:26:43.914Z,40.83
2019-02-25T11:29:13.778Z,43.30
2019-02-25T11:31:45.222Z,45.63
2019-02-25T11:34:14.713Z,41.28
2019-02-25T11:36:43.895Z,42.55
2019-02-25T11:39:13.807Z,42.35
2019-02-25T11:41:42.814Z,45.38
2019-02-25T11:44:11.715Z,37.88
2019-02-25T11:46:40.976Z,38.53
2019-02-25T11:49:10.014Z,36.85
2019-02-25T11:51:39.014Z,36.80
2019-02-25T11:54:08.014Z,41.42
2019-02-25T11:56:36.973Z,36.95
2019-02-25T11:59:06.033Z,35.28
2019-02-25T12:01:35.029Z,38.45
2019-02-25T12:04:04.074Z,38.73
2019-02-25T12:06:32.993Z,34.45
2019-02-25T12:09:01.986Z,38.92
2019-02-25T12:11:30.858Z,37.83
2019-02-25T12:13:59.753Z,36.23
2019-02-25T12:16:28.853Z,38.98
2019-02-25T12:18:57.720Z,34.10
2019-02-25T12:21:26.629Z,37.55
2019-02-25T12:23:55.614Z,38.33
2019-02-25T12:26:25.808Z,40.35
2019-02-25T12:28:54.734Z,37.40
2019-02-25T12:31:23.855Z,35.65
2019-02-25T12:33:52.785Z,40.58
2019-02-25T12:36:21.784Z,42.23
2019-02-25T12:38:50.746Z,37.50
2019-02-25T12:41:19.646Z,40.05
2019-02-25T12:43:48.505Z,34.48
2019-02-25T12:46:17.434Z,33.42
2019-02-25T12:48:46.365Z,40.12
2019-02-25T12:51:15.245Z,33.67
2019-02-25T12:53:44.166Z,40.00
2019-02-25T12:56:13.150Z,38.42
2019-02-25T12:58:42.044Z,43.80
2019-02-25T13:01:10.965Z,33.05
2019-02-25T13:03:39.848Z,36.17
2019-02-25T13:06:08.727Z,33.08
2019-02-25T13:08:37.665Z,30.43
2019-02-25T13:11:06.665Z,27.32
2019-02-25T13:13:35.706Z,28.50
2019-02-25T13:16:04.609Z,43.13
2019-02-25T13:18:33.486Z,26.35
2019-02-25T13:21:02.346Z,36.40
2019-02-25T13:23:31.305Z,35.50
2019-02-25T13:26:07.271Z,30.17
2019-02-25T13:28:33.117Z,33.08
2019-02-25T13:31:03.267Z,28.57
2019-02-25T13:33:32.206Z,37.70
2019-02-25T13:36:01.166Z,30.50
2019-02-25T13:38:30.188Z,33.78
2019-02-25T13:40:59.158Z,28.85
2019-02-25T13:43:28.107Z,25.70
2019-02-25T13:45:57.125Z,29.48
2019-02-25T13:48:26.086Z,34.43
2019-02-25T13:50:55.045Z,28.75
2019-02-25T13:53:24.094Z,28.83
2019-02-25T13:55:53.046Z,27.40
2019-02-25T13:58:22.094Z,29.87
2019-02-25T14:00:51.207Z,29.23
2019-02-25T14:03:20.169Z,26.15
2019-02-25T14:05:49.114Z,29.05
2019-02-25T14:08:18.126Z,26.42
2019-02-25T14:10:47.374Z,25.97
2019-02-25T14:13:16.586Z,25.62
2019-02-25T14:15:45.666Z,28.00
2019-02-25T14:18:14.747Z,28.27
2019-02-25T14:20:44.285Z,35.35
2019-02-25T14:23:13.394Z,26.15
2019-02-25T14:25:42.438Z,27.93
2019-02-25T14:28:11.399Z,28.67
2019-02-25T14:30:40.486Z,26.30
2019-02-25T14:33:09.465Z,26.95
2019-02-25T14:35:38.506Z,28.57
2019-02-25T14:38:15.916Z,26.20
2019-02-25T14:40:44.838Z,27.00
2019-02-25T14:43:15.677Z,26.17
2019-02-25T14:45:46.613Z,25.25
2019-02-25T14:48:20.364Z,30.37
2019-02-25T14:50:46.545Z,28.47
2019-02-25T14:53:15.731Z,22.07
2019-02-25T14:55:46.923Z,28.50
2019-02-25T14:58:17.423Z,27.00
2019-02-25T15:00:46.235Z,25.50
2019-02-25T15:03:15.287Z,26.82
2019-02-25T15:05:44.547Z,31.95
2019-02-25T15:08:13.545Z,25.43
2019-02-25T15:10:43.006Z,30.43
2019-02-25T15:13:12.350Z,28.47
2019-02-25T15:15:43.464Z,26.00
2019-02-25T15:18:14.354Z,26.25
2019-02-25T15:20:43.454Z,28.80
2019-02-25T15:23:14.920Z,27.05
2019-02-25T15:25:45.416Z,25.72
2019-02-25T15:28:15.656Z,26.10
2019-02-25T15:30:44.627Z,29.60
2019-02-25T15:33:13.573Z,27.10
2019-02-25T15:35:43.849Z,24.95
2019-02-25T15:38:13.026Z,29.00
2019-02-25T15:40:42.694Z,26.12
2019-02-25T15:43:17.715Z,29.45
2019-02-25T15:45:46.887Z,28.47
2019-02-25T15:48:21.098Z,26.07
2019-02-25T15:50:57.373Z,26.50
2019-02-25T15:53:27.208Z,25.25
2019-02-25T15:55:59.238Z,33.05
2019-02-25T15:58:27.400Z,40.67
2019-02-25T16:00:56.726Z,48.55
2019-02-25T16:03:26.850Z,42.30
2019-02-25T16:05:59.295Z,37.95
2019-02-25T16:08:28.656Z,41.92
2019-02-25T16:10:58.464Z,35.05
2019-02-25T16:13:28.786Z,31.25
2019-02-25T16:15:57.949Z,31.40
2019-02-25T16:18:27.820Z,33.08
2019-02-25T16:20:57.498Z,34.30
2019-02-25T16:23:31.817Z,32.30
2019-02-25T16:25:59.925Z,33.25
2019-02-25T16:28:31.069Z,35.58
2019-02-25T16:31:00.106Z,33.35
2019-02-25T16:33:30.822Z,32.03
2019-02-25T16:36:01.270Z,65.50
2019-02-25T16:38:31.866Z,45.80
2019-02-25T16:41:03.708Z,93.10
2019-02-25T16:43:32.785Z,43.45
2019-02-25T16:46:04.295Z,35.13
2019-02-25T16:48:33.011Z,34.27
2019-02-25T16:51:02.729Z,34.60
2019-02-25T16:53:36.980Z,33.67
2019-02-25T16:56:05.680Z,31.30
2019-02-25T16:58:36.450Z,31.15
2019-02-25T17:01:08.047Z,34.25
2019-02-25T17:03:39.211Z,33.35
2019-02-25T17:06:09.167Z,39.35
2019-02-25T17:08:39.035Z,36.83
2019-02-25T17:11:08.406Z,31.15
2019-02-25T17:13:39.719Z,32.13
2019-02-25T17:16:17.926Z,33.83
2019-02-25T17:18:39.746Z,34.33
2019-02-25T17:21:09.006Z,34.30
2019-02-25T17:23:38.782Z,35.35
2019-02-25T17:26:10.586Z,33.53
2019-02-25T17:28:39.167Z,54.77
2019-02-25T17:31:09.027Z,39.92
2019-02-25T17:33:39.265Z,47.30
2019-02-25T17:36:09.988Z,46.08
2019-02-25T17:38:40.691Z,39.73
2019-02-25T17:41:11.214Z,40.10
2019-02-25T17:43:43.024Z,38.50
2019-02-25T17:46:14.045Z,41.05
2019-02-25T17:48:43.106Z,38.70
2019-02-25T17:51:16.194Z,40.92
2019-02-25T17:53:46.091Z,39.43
2019-02-25T17:56:18.119Z,36.75
2019-02-25T17:58:47.245Z,36.88
2019-02-25T18:01:17.377Z,37.23
2019-02-25T18:03:48.224Z,39.40
2019-02-25T18:06:17.585Z,34.95
2019-02-25T18:08:46.825Z,36.65
2019-02-25T18:11:17.932Z,37.65
2019-02-25T18:13:48.818Z,38.98
2019-02-25T18:16:18.972Z,37.98
2019-02-25T18:18:50.705Z,37.25
2019-02-25T18:21:19.285Z,36.00
2019-02-25T18:23:49.370Z,39.05
2019-02-25T18:26:19.444Z,44.65
2019-02-25T18:28:50.317Z,44.60
2019-02-25T18:31:19.577Z,47.27
2019-02-25T18:33:51.121Z,41.45
2019-02-25T18:36:21.844Z,158.87
2019-02-25T18:38:52.785Z,43.00
2019-02-25T18:41:24.876Z,44.23
2019-02-25T18:43:54.046Z,46.58
2019-02-25T18:46:23.817Z,41.13
2019-02-25T18:48:54.226Z,44.90
2019-02-25T18:51:24.569Z,43.15
2019-02-25T18:53:55.462Z,49.93
2019-02-25T18:56:25.506Z,43.75
2019-02-25T18:59:07.347Z,45.28
2019-02-25T19:01:26.837Z,44.38
2019-02-25T19:03:56.919Z,43.87
2019-02-25T19:06:29.218Z,45.63
2019-02-25T19:08:58.351Z,44.40
2019-02-25T19:11:28.240Z,44.25
2019-02-25T19:14:01.799Z,52.78
2019-02-25T19:16:28.604Z,46.20
2019-02-25T19:18:57.825Z,45.75
2019-02-25T19:21:27.732Z,45.17
2019-02-25T19:23:58.007Z,49.48
2019-02-25T19:26:27.325Z,42.55
2019-02-25T19:28:58.613Z,47.75
2019-02-25T19:31:27.586Z,42.88
2019-02-25T19:34:00.089Z,41.98
2019-02-25T19:36:29.718Z,48.68
2019-02-25T19:38:59.129Z,43.63
2019-02-25T19:41:29.830Z,41.05
2019-02-25T19:44:01.705Z,38.58
2019-02-25T19:46:30.325Z,35.70
2019-02-25T19:49:01.244Z,40.58
2019-02-25T19:51:30.546Z,43.52
2019-02-25T19:54:02.683Z,38.30
2019-02-25T19:56:30.884Z,44.18
2019-02-25T19:59:00.749Z,40.40
2019-02-25T20:01:30.993Z,39.27
2019-02-25T20:04:04.373Z,45.70
2019-02-25T20:06:31.466Z,40.88
2019-02-25T20:09:00.745Z,42.93
2019-02-25T20:11:30.225Z,38.38
2019-02-25T20:14:01.591Z,38.02
2019-02-25T20:16:32.416Z,41.48
2019-02-25T20:19:02.560Z,37.00
2019-02-25T20:21:32.705Z,37.25
2019-02-25T20:24:01.895Z,36.58
2019-02-25T20:26:32.629Z,38.60
2019-02-25T20:29:04.003Z,39.42
2019-02-25T20:31:32.963Z,41.23
2019-02-25T20:34:02.277Z,36.20
2019-02-25T20:36:32.701Z,38.35
2019-02-25T20:39:02.082Z,43.38
2019-02-25T20:41:31.305Z,37.25
2019-02-25T20:44:01.189Z,43.65
2019-02-25T20:46:32.745Z,44.35
2019-02-25T20:49:02.414Z,40.00
2019-02-25T20:51:33.868Z,36.38
2019-02-25T20:54:03.226Z,39.63
2019-02-25T20:56:33.265Z,33.80
2019-02-25T20:59:05.144Z,35.15
2019-02-25T21:01:37.158Z,40.67
2019-02-25T21:04:04.545Z,37.88
2019-02-25T21:06:35.873Z,38.85
2019-02-25T21:09:06.665Z,40.25
2019-02-25T21:11:36.635Z,39.45
2019-02-25T21:14:13.603Z,36.85
2019-02-25T21:17:03.003Z,39.55
2019-02-25T21:19:33.283Z,46.05
2019-02-25T21:22:04.312Z,44.77
2019-02-25T21:24:35.311Z,53.78
2019-02-25T21:27:06.396Z,56.88
2019-02-25T21:29:38.306Z,47.93
2019-02-25T21:32:06.244Z,50.88
2019-02-25T21:34:35.345Z,54.20
2019-02-25T21:37:04.577Z,44.53
2019-02-25T21:39:34.497Z,44.83
2019-02-25T21:42:06.391Z,43.42
2019-02-25T21:44:35.989Z,47.05
2019-02-25T21:47:06.336Z,51.37
2019-02-25T21:49:36.505Z,43.28
2019-02-25T21:52:08.315Z,48.17
2019-02-25T21:54:37.426Z,46.35
2019-02-25T21:57:08.019Z,49.93
2019-02-25T21:59:38.617Z,53.73
2019-02-25T22:02:07.605Z,114.22
2019-02-25T22:04:38.476Z,58.85
2019-02-25T22:07:07.156Z,53.20
2019-02-25T22:09:41.188Z,47.08
2019-02-25T22:12:06.691Z,46.00
2019-02-25T22:14:35.605Z,47.27
2019-02-25T22:17:04.446Z,48.25
2019-02-25T22:19:35.007Z,52.13
2019-02-25T22:22:04.937Z,45.60
2019-02-25T22:24:36.290Z,45.10
2019-02-25T22:27:05.246Z,47.08
2019-02-25T22:29:36.593Z,56.30
2019-02-25T22:32:06.395Z,52.65
2019-02-25T22:34:35.625Z,50.23
2019-02-25T22:37:04.683Z,59.88
2019-02-25T22:39:33.565Z,57.05
2019-02-25T22:42:03.570Z,56.13
2019-02-25T22:44:33.541Z,48.55
2019-02-25T22:47:05.155Z,102.97
2019-02-25T22:49:33.343Z,72.10
2019-02-25T22:52:02.924Z,64.65
2019-02-25T22:54:32.874Z,66.53
2019-02-25T22:57:01.745Z,89.13
2019-02-25T22:59:30.647Z,77.82
2019-02-25T23:01:59.543Z,59.58
2019-02-25T23:04:28.429Z,64.58
2019-02-25T23:06:57.349Z,55.50
2019-02-25T23:09:26.369Z,50.78
2019-02-25T23:11:55.643Z,53.38
2019-02-25T23:14:24.562Z,54.05
2019-02-25T23:16:53.584Z,56.37
2019-02-25T23:19:22.609Z,50.65
2019-02-25T23:21:51.573Z,48.70
2019-02-25T23:24:21.772Z,50.58
2019-02-25T23:26:52.905Z,39.70
2019-02-25T23:29:22.473Z,43.65
2019-02-25T23:31:52.003Z,44.18
2019-02-25T23:34:22.688Z,49.58
2019-02-25T23:36:53.987Z,47.08
2019-02-25T23:39:22.264Z,42.58
2019-02-25T23:41:51.127Z,41.90
2019-02-25T23:44:22.054Z,44.80
2019-02-25T23:46:55.394Z,43.98
2019-02-25T23:49:27.263Z,44.20
2019-02-25T23:51:52.065Z,43.95
2019-02-25T23:54:23.059Z,60.03
2019-02-25T23:56:52.541Z,46.28
2019-02-25T23:59:24.302Z,42.20
